Terminal Aerodrome Forecast
Issued by NWS Raleigh/Durham, NC

Home | Current Version | Previous Version | Text Only | Print | Product List | Glossary On
Versions: 1 2 3 4 5 6 7 8 9 10 11 12 13 14 15 16 17 18 19 20 21 22 23 24 25 26 27 28 29 30 31 32 33 34 35 36 37 38 39 40 41
998
FTUS42 KRAH 111726
TAFRDU
TAF
KRDU 111726Z 1118/1218 28009G17KT P6SM SKC
     FM112300 VRB02KT P6SM FEW180
     FM121000 08006KT P6SM OVC050
     FM121500 08005KT P6SM -SN OVC015=

USA.gov is the U.S. government's official web portal to all federal, state and local government web resources and services.